sensor_id;sensor_type;location;lat;lon;timestamp;temperature;humidity
21815;DHT22;11069;48.988;8.450;2022-08-02T00:01:32;19.80;99.90
21815;DHT22;11069;48.988;8.450;2022-08-02T00:03:58;19.70;99.90
21815;DHT22;11069;48.988;8.450;2022-08-02T00:06:24;19.60;99.90
21815;DHT22;11069;48.988;8.450;2022-08-02T00:08:49;19.50;99.90
21815;DHT22;11069;48.988;8.450;2022-08-02T00:11:15;19.40;99.90
21815;DHT22;11069;48.988;8.450;2022-08-02T00:13:41;19.30;99.90
21815;DHT22;11069;48.988;8.450;2022-08-02T00:16:06;19.40;99.90
21815;DHT22;11069;48.988;8.450;2022-08-02T00:18:32;19.20;99.90
21815;DHT22;11069;48.988;8.450;2022-08-02T00:20:58;19.20;99.90
21815;DHT22;11069;48.988;8.450;2022-08-02T00:23:23;19.10;99.90
21815;DHT22;11069;48.988;8.450;2022-08-02T00:25:49;19.10;99.90
21815;DHT22;11069;48.988;8.450;2022-08-02T00:28:14;19.10;99.90
21815;DHT22;11069;48.988;8.450;2022-08-02T00:30:40;19.00;99.90
21815;DHT22;11069;48.988;8.450;2022-08-02T00:33:06;19.00;99.90
21815;DHT22;11069;48.988;8.450;2022-08-02T00:35:33;19.00;99.90
21815;DHT22;11069;48.988;8.450;2022-08-02T00:37:58;18.90;99.90
21815;DHT22;11069;48.988;8.450;2022-08-02T00:40:24;18.90;99.90
21815;DHT22;11069;48.988;8.450;2022-08-02T00:43:04;18.80;99.90
21815;DHT22;11069;48.988;8.450;2022-08-02T00:45:37;18.80;99.90
21815;DHT22;11069;48.988;8.450;2022-08-02T00:48:05;18.80;99.90
21815;DHT22;11069;48.988;8.450;2022-08-02T00:50:32;18.90;99.90
21815;DHT22;11069;48.988;8.450;2022-08-02T00:52:58;18.80;99.90
21815;DHT22;11069;48.988;8.450;2022-08-02T00:55:24;18.80;99.90
21815;DHT22;11069;48.988;8.450;2022-08-02T00:57:49;18.70;99.90
21815;DHT22;11069;48.988;8.450;2022-08-02T01:00:16;18.70;99.90
21815;DHT22;11069;48.988;8.450;2022-08-02T01:02:42;18.60;99.90
21815;DHT22;11069;48.988;8.450;2022-08-02T01:05:08;18.60;99.90
21815;DHT22;11069;48.988;8.450;2022-08-02T01:07:34;18.60;99.90
21815;DHT22;11069;48.988;8.450;2022-08-02T01:10:00;18.50;99.90
21815;DHT22;11069;48.988;8.450;2022-08-02T01:12:26;18.40;99.90
21815;DHT22;11069;48.988;8.450;2022-08-02T01:14:58;18.30;99.90
21815;DHT22;11069;48.988;8.450;2022-08-02T01:29:03;18.40;99.90
21815;DHT22;11069;48.988;8.450;2022-08-02T01:31:31;18.50;99.90
21815;DHT22;11069;48.988;8.450;2022-08-02T01:34:20;18.50;99.90
21815;DHT22;11069;48.988;8.450;2022-08-02T01:37:00;18.50;99.90
21815;DHT22;11069;48.988;8.450;2022-08-02T01:39:30;18.40;99.90
21815;DHT22;11069;48.988;8.450;2022-08-02T01:41:58;18.40;99.90
21815;DHT22;11069;48.988;8.450;2022-08-02T01:44:28;18.30;99.90
21815;DHT22;11069;48.988;8.450;2022-08-02T01:47:03;18.40;99.90
21815;DHT22;11069;48.988;8.450;2022-08-02T01:49:31;18.40;99.90
21815;DHT22;11069;48.988;8.450;2022-08-02T01:51:59;18.50;99.90
21815;DHT22;11069;48.988;8.450;2022-08-02T01:54:44;18.40;99.90
21815;DHT22;11069;48.988;8.450;2022-08-02T01:57:12;18.40;99.90
21815;DHT22;11069;48.988;8.450;2022-08-02T01:59:39;18.50;99.90
21815;DHT22;11069;48.988;8.450;2022-08-02T02:02:07;18.50;99.90
21815;DHT22;11069;48.988;8.450;2022-08-02T02:04:34;18.50;99.90
21815;DHT22;11069;48.988;8.450;2022-08-02T02:07:02;18.50;99.90
21815;DHT22;11069;48.988;8.450;2022-08-02T02:09:29;18.50;99.90
21815;DHT22;11069;48.988;8.450;2022-08-02T02:11:58;18.20;99.90
21815;DHT22;11069;48.988;8.450;2022-08-02T02:14:25;18.10;99.90
21815;DHT22;11069;48.988;8.450;2022-08-02T02:16:51;17.90;99.90
21815;DHT22;11069;48.988;8.450;2022-08-02T02:19:19;17.80;99.90
21815;DHT22;11069;48.988;8.450;2022-08-02T02:21:46;17.70;99.90
21815;DHT22;11069;48.988;8.450;2022-08-02T02:24:12;17.60;99.90
21815;DHT22;11069;48.988;8.450;2022-08-02T02:26:39;17.60;99.90
21815;DHT22;11069;48.988;8.450;2022-08-02T02:29:06;17.60;99.90
21815;DHT22;11069;48.988;8.450;2022-08-02T02:31:37;17.50;99.90
21815;DHT22;11069;48.988;8.450;2022-08-02T02:34:23;17.50;99.90
21815;DHT22;11069;48.988;8.450;2022-08-02T02:36:50;17.60;99.90
21815;DHT22;11069;48.988;8.450;2022-08-02T02:39:20;17.60;99.90
21815;DHT22;11069;48.988;8.450;2022-08-02T02:41:48;17.70;99.90
21815;DHT22;11069;48.988;8.450;2022-08-02T02:44:17;17.70;99.90
21815;DHT22;11069;48.988;8.450;2022-08-02T02:46:44;17.70;99.90
21815;DHT22;11069;48.988;8.450;2022-08-02T02:49:11;17.70;99.90
21815;DHT22;11069;48.988;8.450;2022-08-02T02:51:41;17.80;99.90
21815;DHT22;11069;48.988;8.450;2022-08-02T02:54:08;17.90;99.90
21815;DHT22;11069;48.988;8.450;2022-08-02T02:56:37;18.10;99.90
21815;DHT22;11069;48.988;8.450;2022-08-02T02:59:03;18.10;99.90
21815;DHT22;11069;48.988;8.450;2022-08-02T03:01:30;18.10;99.90
21815;DHT22;11069;48.988;8.450;2022-08-02T03:03:59;18.10;99.90
21815;DHT22;11069;48.988;8.450;2022-08-02T03:06:25;18.10;99.90
21815;DHT22;11069;48.988;8.450;2022-08-02T03:08:51;18.10;99.90
21815;DHT22;11069;48.988;8.450;2022-08-02T03:11:17;18.20;99.90
21815;DHT22;11069;48.988;8.450;2022-08-02T03:13:43;18.20;99.90
21815;DHT22;11069;48.988;8.450;2022-08-02T03:16:10;18.20;99.90
21815;DHT22;11069;48.988;8.450;2022-08-02T03:18:38;18.30;99.90
21815;DHT22;11069;48.988;8.450;2022-08-02T03:21:13;18.30;99.90
21815;DHT22;11069;48.988;8.450;2022-08-02T03:23:40;18.30;99.90
21815;DHT22;11069;48.988;8.450;2022-08-02T03:26:07;18.30;99.90
21815;DHT22;11069;48.988;8.450;2022-08-02T03:28:33;18.30;99.90
21815;DHT22;11069;48.988;8.450;2022-08-02T03:30:59;18.40;99.90
21815;DHT22;11069;48.988;8.450;2022-08-02T03:33:27;18.50;99.90
21815;DHT22;11069;48.988;8.450;2022-08-02T03:35:56;18.50;99.90
21815;DHT22;11069;48.988;8.450;2022-08-02T03:38:24;18.50;99.90
21815;DHT22;11069;48.988;8.450;2022-08-02T03:40:51;18.40;99.90
21815;DHT22;11069;48.988;8.450;2022-08-02T03:43:17;18.40;99.90
21815;DHT22;11069;48.988;8.450;2022-08-02T03:45:46;18.40;99.90
21815;DHT22;11069;48.988;8.450;2022-08-02T03:48:15;18.30;99.90
21815;DHT22;11069;48.988;8.450;2022-08-02T03:50:42;18.20;99.90
21815;DHT22;11069;48.988;8.450;2022-08-02T03:53:09;18.20;99.90
21815;DHT22;11069;48.988;8.450;2022-08-02T03:55:38;18.20;99.90
21815;DHT22;11069;48.988;8.450;2022-08-02T03:58:04;18.20;99.90
21815;DHT22;11069;48.988;8.450;2022-08-02T04:00:30;18.10;99.90
21815;DHT22;11069;48.988;8.450;2022-08-02T04:02:56;18.10;99.90
21815;DHT22;11069;48.988;8.450;2022-08-02T04:05:22;18.20;99.90
21815;DHT22;11069;48.988;8.450;2022-08-02T04:07:48;18.20;99.90
21815;DHT22;11069;48.988;8.450;2022-08-02T04:10:15;18.20;99.90
21815;DHT22;11069;48.988;8.450;2022-08-02T04:12:41;18.20;99.90
21815;DHT22;11069;48.988;8.450;2022-08-02T04:15:08;18.10;99.90
21815;DHT22;11069;48.988;8.450;2022-08-02T04:17:58;18.10;99.90
21815;DHT22;11069;48.988;8.450;2022-08-02T04:20:30;18.00;99.90
21815;DHT22;11069;48.988;8.450;2022-08-02T04:23:04;18.00;99.90
21815;DHT22;11069;48.988;8.450;2022-08-02T04:25:31;18.00;99.90
21815;DHT22;11069;48.988;8.450;2022-08-02T04:27:59;17.90;99.90
21815;DHT22;11069;48.988;8.450;2022-08-02T04:30:25;17.90;99.90
21815;DHT22;11069;48.988;8.450;2022-08-02T04:32:51;17.80;99.90
21815;DHT22;11069;48.988;8.450;2022-08-02T04:35:17;17.80;99.90
21815;DHT22;11069;48.988;8.450;2022-08-02T04:37:43;17.80;99.90
21815;DHT22;11069;48.988;8.450;2022-08-02T04:40:10;17.90;99.90
21815;DHT22;11069;48.988;8.450;2022-08-02T04:42:37;17.80;99.90
21815;DHT22;11069;48.988;8.450;2022-08-02T04:45:07;18.00;99.90
21815;DHT22;11069;48.988;8.450;2022-08-02T04:47:33;18.00;99.90
21815;DHT22;11069;48.988;8.450;2022-08-02T04:49:59;18.10;99.90
21815;DHT22;11069;48.988;8.450;2022-08-02T04:52:25;18.30;99.90
21815;DHT22;11069;48.988;8.450;2022-08-02T04:54:50;18.30;99.90
21815;DHT22;11069;48.988;8.450;2022-08-02T04:57:21;18.40;99.90
21815;DHT22;11069;48.988;8.450;2022-08-02T05:00:09;18.50;99.90
21815;DHT22;11069;48.988;8.450;2022-08-02T05:02:35;18.60;99.90
21815;DHT22;11069;48.988;8.450;2022-08-02T05:05:04;18.60;99.90
21815;DHT22;11069;48.988;8.450;2022-08-02T05:07:36;18.70;99.90
21815;DHT22;11069;48.988;8.450;2022-08-02T05:10:03;18.80;99.90
21815;DHT22;11069;48.988;8.450;2022-08-02T05:12:29;18.90;99.90
21815;DHT22;11069;48.988;8.450;2022-08-02T05:14:54;18.90;99.90
21815;DHT22;11069;48.988;8.450;2022-08-02T05:17:20;19.00;99.90
21815;DHT22;11069;48.988;8.450;2022-08-02T05:19:46;19.10;99.90
21815;DHT22;11069;48.988;8.450;2022-08-02T05:22:11;19.20;99.90
21815;DHT22;11069;48.988;8.450;2022-08-02T05:24:37;19.30;99.90
21815;DHT22;11069;48.988;8.450;2022-08-02T05:27:03;19.40;99.90
21815;DHT22;11069;48.988;8.450;2022-08-02T05:29:28;19.40;99.90
21815;DHT22;11069;48.988;8.450;2022-08-02T05:31:54;19.50;99.90
21815;DHT22;11069;48.988;8.450;2022-08-02T05:34:19;19.60;99.90
21815;DHT22;11069;48.988;8.450;2022-08-02T05:36:45;19.70;99.90
21815;DHT22;11069;48.988;8.450;2022-08-02T05:39:11;19.80;99.90
21815;DHT22;11069;48.988;8.450;2022-08-02T05:41:36;19.80;99.90
21815;DHT22;11069;48.988;8.450;2022-08-02T05:44:03;19.90;99.90
21815;DHT22;11069;48.988;8.450;2022-08-02T05:46:28;19.90;99.90
21815;DHT22;11069;48.988;8.450;2022-08-02T05:48:54;20.00;99.90
21815;DHT22;11069;48.988;8.450;2022-08-02T05:51:28;20.10;99.90
21815;DHT22;11069;48.988;8.450;2022-08-02T05:54:10;20.20;99.90
21815;DHT22;11069;48.988;8.450;2022-08-02T05:56:50;20.20;99.90
21815;DHT22;11069;48.988;8.450;2022-08-02T05:59:36;20.20;99.90
21815;DHT22;11069;48.988;8.450;2022-08-02T06:02:21;20.30;99.90
21815;DHT22;11069;48.988;8.450;2022-08-02T06:04:58;20.30;99.90
21815;DHT22;11069;48.988;8.450;2022-08-02T06:07:29;20.30;99.90
21815;DHT22;11069;48.988;8.450;2022-08-02T06:09:55;20.40;99.90
21815;DHT22;11069;48.988;8.450;2022-08-02T06:12:24;20.40;99.90
21815;DHT22;11069;48.988;8.450;2022-08-02T06:14:53;20.50;99.90
21815;DHT22;11069;48.988;8.450;2022-08-02T06:17:20;20.60;99.90
21815;DHT22;11069;48.988;8.450;2022-08-02T06:19:47;20.70;99.90
21815;DHT22;11069;48.988;8.450;2022-08-02T06:22:15;20.70;99.90
21815;DHT22;11069;48.988;8.450;2022-08-02T06:24:45;20.90;99.90
21815;DHT22;11069;48.988;8.450;2022-08-02T06:27:13;21.00;99.90
21815;DHT22;11069;48.988;8.450;2022-08-02T06:29:40;21.00;99.90
21815;DHT22;11069;48.988;8.450;2022-08-02T06:32:06;20.90;99.90
21815;DHT22;11069;48.988;8.450;2022-08-02T06:34:39;21.00;99.90
21815;DHT22;11069;48.988;8.450;2022-08-02T06:37:18;21.50;99.90
21815;DHT22;11069;48.988;8.450;2022-08-02T06:39:49;22.40;99.90
21815;DHT22;11069;48.988;8.450;2022-08-02T06:42:27;23.10;99.90
21815;DHT22;11069;48.988;8.450;2022-08-02T06:44:57;23.50;99.90
21815;DHT22;11069;48.988;8.450;2022-08-02T06:47:23;24.10;99.90
21815;DHT22;11069;48.988;8.450;2022-08-02T06:49:49;24.50;99.90
21815;DHT22;11069;48.988;8.450;2022-08-02T06:52:14;24.70;99.90
21815;DHT22;11069;48.988;8.450;2022-08-02T06:54:40;24.80;99.90
21815;DHT22;11069;48.988;8.450;2022-08-02T06:57:07;24.70;99.90
21815;DHT22;11069;48.988;8.450;2022-08-02T06:59:34;24.80;99.80
21815;DHT22;11069;48.988;8.450;2022-08-02T07:01:59;25.00;99.90
21815;DHT22;11069;48.988;8.450;2022-08-02T07:04:28;25.20;99.00
21815;DHT22;11069;48.988;8.450;2022-08-02T07:06:53;25.10;99.70
21815;DHT22;11069;48.988;8.450;2022-08-02T07:09:21;25.00;99.20
21815;DHT22;11069;48.988;8.450;2022-08-02T07:11:47;24.90;99.30
21815;DHT22;11069;48.988;8.450;2022-08-02T07:14:12;24.50;99.20
21815;DHT22;11069;48.988;8.450;2022-08-02T07:16:38;24.30;99.90
21815;DHT22;11069;48.988;8.450;2022-08-02T07:19:03;24.10;99.90
21815;DHT22;11069;48.988;8.450;2022-08-02T07:21:29;24.20;99.90
21815;DHT22;11069;48.988;8.450;2022-08-02T07:23:55;24.30;99.90
21815;DHT22;11069;48.988;8.450;2022-08-02T07:26:20;24.60;99.90
21815;DHT22;11069;48.988;8.450;2022-08-02T07:28:46;24.60;99.90
21815;DHT22;11069;48.988;8.450;2022-08-02T07:31:11;24.50;99.60
21815;DHT22;11069;48.988;8.450;2022-08-02T07:33:37;24.70;99.60
21815;DHT22;11069;48.988;8.450;2022-08-02T07:36:03;24.70;99.70
21815;DHT22;11069;48.988;8.450;2022-08-02T07:38:28;25.20;99.30
21815;DHT22;11069;48.988;8.450;2022-08-02T07:40:54;25.20;99.10
21815;DHT22;11069;48.988;8.450;2022-08-02T07:43:20;24.80;98.70
21815;DHT22;11069;48.988;8.450;2022-08-02T07:45:45;24.80;99.20
21815;DHT22;11069;48.988;8.450;2022-08-02T07:48:11;25.10;99.00
21815;DHT22;11069;48.988;8.450;2022-08-02T07:50:37;25.10;98.80
21815;DHT22;11069;48.988;8.450;2022-08-02T07:53:02;25.10;98.30
21815;DHT22;11069;48.988;8.450;2022-08-02T07:55:28;25.60;98.80
21815;DHT22;11069;48.988;8.450;2022-08-02T07:57:54;25.40;98.20
21815;DHT22;11069;48.988;8.450;2022-08-02T08:00:19;26.00;97.60
21815;DHT22;11069;48.988;8.450;2022-08-02T08:02:45;26.20;96.20
21815;DHT22;11069;48.988;8.450;2022-08-02T08:05:12;25.80;95.80
21815;DHT22;11069;48.988;8.450;2022-08-02T08:07:38;26.50;96.60
21815;DHT22;11069;48.988;8.450;2022-08-02T08:10:05;26.80;95.60
21815;DHT22;11069;48.988;8.450;2022-08-02T08:12:31;26.60;95.00
21815;DHT22;11069;48.988;8.450;2022-08-02T08:14:56;27.30;94.50
21815;DHT22;11069;48.988;8.450;2022-08-02T08:17:22;27.90;92.90
21815;DHT22;11069;48.988;8.450;2022-08-02T08:19:48;28.10;91.80
21815;DHT22;11069;48.988;8.450;2022-08-02T08:22:13;28.20;92.30
21815;DHT22;11069;48.988;8.450;2022-08-02T08:24:39;28.60;91.00
21815;DHT22;11069;48.988;8.450;2022-08-02T08:27:05;28.80;90.40
21815;DHT22;11069;48.988;8.450;2022-08-02T08:29:31;28.80;90.00
21815;DHT22;11069;48.988;8.450;2022-08-02T08:31:56;27.70;92.40
21815;DHT22;11069;48.988;8.450;2022-08-02T08:34:22;28.40;91.00
21815;DHT22;11069;48.988;8.450;2022-08-02T08:36:49;28.00;90.80
21815;DHT22;11069;48.988;8.450;2022-08-02T08:39:14;27.70;90.80
21815;DHT22;11069;48.988;8.450;2022-08-02T08:41:42;27.60;92.10
21815;DHT22;11069;48.988;8.450;2022-08-02T08:44:11;27.80;91.50
21815;DHT22;11069;48.988;8.450;2022-08-02T08:46:37;26.90;92.70
21815;DHT22;11069;48.988;8.450;2022-08-02T08:49:09;26.30;93.50
21815;DHT22;11069;48.988;8.450;2022-08-02T08:51:40;26.50;93.60
21815;DHT22;11069;48.988;8.450;2022-08-02T08:54:06;26.80;93.40
21815;DHT22;11069;48.988;8.450;2022-08-02T08:56:35;27.10;92.70
21815;DHT22;11069;48.988;8.450;2022-08-02T08:59:02;26.60;92.00
21815;DHT22;11069;48.988;8.450;2022-08-02T09:01:28;27.10;92.60
21815;DHT22;11069;48.988;8.450;2022-08-02T09:03:55;27.80;91.40
21815;DHT22;11069;48.988;8.450;2022-08-02T09:06:21;28.20;90.90
21815;DHT22;11069;48.988;8.450;2022-08-02T09:08:47;27.30;92.00
21815;DHT22;11069;48.988;8.450;2022-08-02T09:11:15;27.60;91.90
21815;DHT22;11069;48.988;8.450;2022-08-02T09:14:00;27.90;90.60
21815;DHT22;11069;48.988;8.450;2022-08-02T09:16:35;28.10;90.10
21815;DHT22;11069;48.988;8.450;2022-08-02T09:19:19;28.40;92.10
21815;DHT22;11069;48.988;8.450;2022-08-02T09:21:47;28.40;90.20
21815;DHT22;11069;48.988;8.450;2022-08-02T09:24:19;27.40;90.20
21815;DHT22;11069;48.988;8.450;2022-08-02T09:26:46;27.70;91.30
21815;DHT22;11069;48.988;8.450;2022-08-02T09:29:12;27.90;90.90
21815;DHT22;11069;48.988;8.450;2022-08-02T09:31:38;27.70;91.40
21815;DHT22;11069;48.988;8.450;2022-08-02T09:34:07;28.20;90.60
21815;DHT22;11069;48.988;8.450;2022-08-02T09:36:44;28.80;90.20
21815;DHT22;11069;48.988;8.450;2022-08-02T09:39:14;28.60;91.80
21815;DHT22;11069;48.988;8.450;2022-08-02T09:41:42;28.20;90.00
21815;DHT22;11069;48.988;8.450;2022-08-02T09:44:09;27.80;91.10
21815;DHT22;11069;48.988;8.450;2022-08-02T09:46:39;28.00;90.90
21815;DHT22;11069;48.988;8.450;2022-08-02T09:49:07;28.10;91.90
21815;DHT22;11069;48.988;8.450;2022-08-02T09:51:35;28.10;90.90
21815;DHT22;11069;48.988;8.450;2022-08-02T09:54:09;27.60;90.90
21815;DHT22;11069;48.988;8.450;2022-08-02T09:56:40;27.80;92.00
21815;DHT22;11069;48.988;8.450;2022-08-02T09:59:07;27.80;91.00
21815;DHT22;11069;48.988;8.450;2022-08-02T10:01:34;28.00;91.10
21815;DHT22;11069;48.988;8.450;2022-08-02T10:04:05;27.80;90.00
21815;DHT22;11069;48.988;8.450;2022-08-02T10:06:32;28.40;90.40
21815;DHT22;11069;48.988;8.450;2022-08-02T10:08:58;28.50;90.50
21815;DHT22;11069;48.988;8.450;2022-08-02T10:11:26;28.70;90.20
21815;DHT22;11069;48.988;8.450;2022-08-02T10:13:53;29.60;88.80
21815;DHT22;11069;48.988;8.450;2022-08-02T10:16:20;30.30;84.00
21815;DHT22;11069;48.988;8.450;2022-08-02T10:18:53;30.30;81.30
21815;DHT22;11069;48.988;8.450;2022-08-02T10:21:45;30.40;79.80
21815;DHT22;11069;48.988;8.450;2022-08-02T10:24:23;30.80;81.50
21815;DHT22;11069;48.988;8.450;2022-08-02T10:26:51;29.80;81.10
21815;DHT22;11069;48.988;8.450;2022-08-02T10:29:23;29.50;85.60
21815;DHT22;11069;48.988;8.450;2022-08-02T10:31:54;29.30;84.60
21815;DHT22;11069;48.988;8.450;2022-08-02T10:34:28;28.50;85.20
21815;DHT22;11069;48.988;8.450;2022-08-02T10:36:55;28.70;83.90
21815;DHT22;11069;48.988;8.450;2022-08-02T10:39:21;29.00;87.20
21815;DHT22;11069;48.988;8.450;2022-08-02T10:41:49;28.80;81.70
21815;DHT22;11069;48.988;8.450;2022-08-02T10:44:21;28.90;84.80
21815;DHT22;11069;48.988;8.450;2022-08-02T10:46:47;29.10;80.60
21815;DHT22;11069;48.988;8.450;2022-08-02T10:49:18;28.60;80.70
21815;DHT22;11069;48.988;8.450;2022-08-02T10:54:37;29.70;78.90
21815;DHT22;11069;48.988;8.450;2022-08-02T10:57:34;30.20;76.00
21815;DHT22;11069;48.988;8.450;2022-08-02T11:00:25;30.70;74.70
21815;DHT22;11069;48.988;8.450;2022-08-02T11:02:52;31.50;72.30
21815;DHT22;11069;48.988;8.450;2022-08-02T11:05:29;31.70;72.20
21815;DHT22;11069;48.988;8.450;2022-08-02T11:07:56;31.70;75.70
21815;DHT22;11069;48.988;8.450;2022-08-02T11:13:18;31.50;75.30
21815;DHT22;11069;48.988;8.450;2022-08-02T11:15:58;30.90;75.30
21815;DHT22;11069;48.988;8.450;2022-08-02T11:23:46;32.10;69.30
21815;DHT22;11069;48.988;8.450;2022-08-02T11:28:57;31.90;68.20
21815;DHT22;11069;48.988;8.450;2022-08-02T11:31:23;31.40;72.60
21815;DHT22;11069;48.988;8.450;2022-08-02T11:33:49;31.70;73.80
21815;DHT22;11069;48.988;8.450;2022-08-02T11:36:16;31.30;74.20
21815;DHT22;11069;48.988;8.450;2022-08-02T11:38:41;31.60;72.00
21815;DHT22;11069;48.988;8.450;2022-08-02T11:41:07;30.80;72.30
21815;DHT22;11069;48.988;8.450;2022-08-02T11:43:34;30.70;71.40
21815;DHT22;11069;48.988;8.450;2022-08-02T11:46:03;31.30;68.90
21815;DHT22;11069;48.988;8.450;2022-08-02T11:48:34;32.10;66.80
21815;DHT22;11069;48.988;8.450;2022-08-02T11:53:50;31.70;71.80
21815;DHT22;11069;48.988;8.450;2022-08-02T11:56:25;32.10;70.40
21815;DHT22;11069;48.988;8.450;2022-08-02T12:01:26;32.10;71.00
21815;DHT22;11069;48.988;8.450;2022-08-02T12:03:52;31.70;70.30
21815;DHT22;11069;48.988;8.450;2022-08-02T12:06:18;31.70;71.40
21815;DHT22;11069;48.988;8.450;2022-08-02T12:08:43;32.10;72.60
21815;DHT22;11069;48.988;8.450;2022-08-02T12:11:09;32.50;69.50
21815;DHT22;11069;48.988;8.450;2022-08-02T12:13:42;32.50;68.30
21815;DHT22;11069;48.988;8.450;2022-08-02T12:16:12;33.40;68.20
21815;DHT22;11069;48.988;8.450;2022-08-02T12:18:57;31.80;68.70
21815;DHT22;11069;48.988;8.450;2022-08-02T12:21:42;31.00;72.80
21815;DHT22;11069;48.988;8.450;2022-08-02T12:24:07;29.90;74.70
21815;DHT22;11069;48.988;8.450;2022-08-02T12:26:43;29.50;74.10
21815;DHT22;11069;48.988;8.450;2022-08-02T12:29:09;29.80;73.30
21815;DHT22;11069;48.988;8.450;2022-08-02T12:31:41;30.80;68.90
21815;DHT22;11069;48.988;8.450;2022-08-02T12:34:15;31.90;68.00
21815;DHT22;11069;48.988;8.450;2022-08-02T12:37:06;32.90;66.00
21815;DHT22;11069;48.988;8.450;2022-08-02T12:39:44;34.40;63.10
21815;DHT22;11069;48.988;8.450;2022-08-02T12:42:12;34.40;63.90
21815;DHT22;11069;48.988;8.450;2022-08-02T12:44:50;33.20;66.90
21815;DHT22;11069;48.988;8.450;2022-08-02T12:47:16;32.80;65.30
21815;DHT22;11069;48.988;8.450;2022-08-02T12:49:42;32.50;68.40
21815;DHT22;11069;48.988;8.450;2022-08-02T12:52:23;32.90;68.90
21815;DHT22;11069;48.988;8.450;2022-08-02T12:54:49;32.90;66.70
21815;DHT22;11069;48.988;8.450;2022-08-02T12:57:18;32.30;66.50
21815;DHT22;11069;48.988;8.450;2022-08-02T12:59:49;32.10;65.40
21815;DHT22;11069;48.988;8.450;2022-08-02T13:02:15;32.20;68.10
21815;DHT22;11069;48.988;8.450;2022-08-02T13:04:42;31.90;66.40
21815;DHT22;11069;48.988;8.450;2022-08-02T13:07:08;31.90;66.00
21815;DHT22;11069;48.988;8.450;2022-08-02T13:09:41;32.00;66.20
21815;DHT22;11069;48.988;8.450;2022-08-02T13:12:09;31.50;65.70
21815;DHT22;11069;48.988;8.450;2022-08-02T13:14:35;32.00;67.60
21815;DHT22;11069;48.988;8.450;2022-08-02T13:17:00;32.70;68.90
21815;DHT22;11069;48.988;8.450;2022-08-02T13:19:26;32.10;65.30
21815;DHT22;11069;48.988;8.450;2022-08-02T13:21:52;31.70;68.30
21815;DHT22;11069;48.988;8.450;2022-08-02T13:24:19;30.90;66.30
21815;DHT22;11069;48.988;8.450;2022-08-02T13:26:45;31.30;69.40
21815;DHT22;11069;48.988;8.450;2022-08-02T13:29:11;31.40;68.60
21815;DHT22;11069;48.988;8.450;2022-08-02T13:31:37;31.60;69.60
21815;DHT22;11069;48.988;8.450;2022-08-02T13:34:05;31.70;69.40
21815;DHT22;11069;48.988;8.450;2022-08-02T13:36:32;31.40;69.70
21815;DHT22;11069;48.988;8.450;2022-08-02T13:38:58;32.00;67.00
21815;DHT22;11069;48.988;8.450;2022-08-02T13:41:24;31.90;68.40
21815;DHT22;11069;48.988;8.450;2022-08-02T13:43:49;31.50;68.00
21815;DHT22;11069;48.988;8.450;2022-08-02T13:46:15;31.90;67.20
21815;DHT22;11069;48.988;8.450;2022-08-02T13:48:41;33.30;66.90
21815;DHT22;11069;48.988;8.450;2022-08-02T13:51:07;34.40;64.50
21815;DHT22;11069;48.988;8.450;2022-08-02T13:53:40;34.00;64.00
21815;DHT22;11069;48.988;8.450;2022-08-02T13:56:06;33.80;62.40
21815;DHT22;11069;48.988;8.450;2022-08-02T13:58:32;33.30;61.60
21815;DHT22;11069;48.988;8.450;2022-08-02T14:00:57;33.20;61.80
21815;DHT22;11069;48.988;8.450;2022-08-02T14:03:23;33.90;60.00
21815;DHT22;11069;48.988;8.450;2022-08-02T14:05:49;34.60;59.40
21815;DHT22;11069;48.988;8.450;2022-08-02T14:08:16;34.80;58.30
21815;DHT22;11069;48.988;8.450;2022-08-02T14:10:42;34.70;57.60
21815;DHT22;11069;48.988;8.450;2022-08-02T14:13:07;34.80;58.30
21815;DHT22;11069;48.988;8.450;2022-08-02T14:15:33;35.10;58.30
21815;DHT22;11069;48.988;8.450;2022-08-02T14:17:59;34.90;57.30
21815;DHT22;11069;48.988;8.450;2022-08-02T14:20:24;35.20;56.70
21815;DHT22;11069;48.988;8.450;2022-08-02T14:22:50;35.80;58.70
21815;DHT22;11069;48.988;8.450;2022-08-02T14:25:16;34.80;56.40
21815;DHT22;11069;48.988;8.450;2022-08-02T14:27:41;33.90;59.30
21815;DHT22;11069;48.988;8.450;2022-08-02T14:30:07;33.60;57.60
21815;DHT22;11069;48.988;8.450;2022-08-02T14:32:33;34.20;58.10
21815;DHT22;11069;48.988;8.450;2022-08-02T14:34:59;33.80;58.60
21815;DHT22;11069;48.988;8.450;2022-08-02T14:37:24;34.80;59.00
21815;DHT22;11069;48.988;8.450;2022-08-02T14:39:50;35.30;56.20
21815;DHT22;11069;48.988;8.450;2022-08-02T14:42:15;35.10;57.20
21815;DHT22;11069;48.988;8.450;2022-08-02T14:44:41;35.20;54.60
21815;DHT22;11069;48.988;8.450;2022-08-02T14:47:06;35.20;55.00
21815;DHT22;11069;48.988;8.450;2022-08-02T14:49:32;34.10;58.70
21815;DHT22;11069;48.988;8.450;2022-08-02T14:51:58;34.10;58.00
21815;DHT22;11069;48.988;8.450;2022-08-02T14:54:24;34.70;59.50
21815;DHT22;11069;48.988;8.450;2022-08-02T14:56:54;35.60;55.50
21815;DHT22;11069;48.988;8.450;2022-08-02T14:59:20;36.10;53.50
21815;DHT22;11069;48.988;8.450;2022-08-02T15:01:46;35.80;55.50
21815;DHT22;11069;48.988;8.450;2022-08-02T15:04:11;35.70;56.00
21815;DHT22;11069;48.988;8.450;2022-08-02T15:06:38;35.20;55.10
21815;DHT22;11069;48.988;8.450;2022-08-02T15:09:03;35.30;57.10
21815;DHT22;11069;48.988;8.450;2022-08-02T15:11:29;35.90;55.30
21815;DHT22;11069;48.988;8.450;2022-08-02T15:13:55;35.60;54.70
21815;DHT22;11069;48.988;8.450;2022-08-02T15:16:23;36.10;55.30
21815;DHT22;11069;48.988;8.450;2022-08-02T15:18:49;35.20;53.70
21815;DHT22;11069;48.988;8.450;2022-08-02T15:21:14;35.30;56.00
21815;DHT22;11069;48.988;8.450;2022-08-02T15:23:40;35.20;54.90
21815;DHT22;11069;48.988;8.450;2022-08-02T15:26:06;35.90;55.10
21815;DHT22;11069;48.988;8.450;2022-08-02T15:28:32;36.40;52.40
21815;DHT22;11069;48.988;8.450;2022-08-02T15:30:58;35.40;55.00
21815;DHT22;11069;48.988;8.450;2022-08-02T15:33:23;35.40;54.00
21815;DHT22;11069;48.988;8.450;2022-08-02T15:35:50;35.20;56.20
21815;DHT22;11069;48.988;8.450;2022-08-02T15:38:15;34.50;53.30
21815;DHT22;11069;48.988;8.450;2022-08-02T15:40:41;34.80;57.30
21815;DHT22;11069;48.988;8.450;2022-08-02T15:43:08;34.60;53.70
21815;DHT22;11069;48.988;8.450;2022-08-02T15:45:35;34.10;55.50
21815;DHT22;11069;48.988;8.450;2022-08-02T15:48:01;34.80;55.70
21815;DHT22;11069;48.988;8.450;2022-08-02T15:50:26;34.80;52.90
21815;DHT22;11069;48.988;8.450;2022-08-02T15:52:52;34.90;53.90
21815;DHT22;11069;48.988;8.450;2022-08-02T15:55:18;35.70;55.20
21815;DHT22;11069;48.988;8.450;2022-08-02T15:57:43;36.60;53.30
21815;DHT22;11069;48.988;8.450;2022-08-02T16:00:10;37.10;52.70
21815;DHT22;11069;48.988;8.450;2022-08-02T16:02:36;37.40;53.90
21815;DHT22;11069;48.988;8.450;2022-08-02T16:05:02;37.30;49.30
21815;DHT22;11069;48.988;8.450;2022-08-02T16:07:27;37.00;53.20